createdAt,value
2019-04-07T00:00:57.000Z,99.90
2019-04-07T00:03:23.993Z,99.90
2019-04-07T00:05:50.730Z,99.90
2019-04-07T00:08:17.826Z,99.90
2019-04-07T00:10:44.669Z,99.90
2019-04-07T00:13:12.397Z,99.90
2019-04-07T00:15:38.989Z,99.90
2019-04-07T00:18:05.514Z,99.90
2019-04-07T00:20:32.133Z,99.90
2019-04-07T00:22:58.583Z,99.90
2019-04-07T00:25:25.139Z,99.90
2019-04-07T00:27:51.951Z,99.90
2019-04-07T00:30:19.075Z,99.90
2019-04-07T00:32:46.775Z,99.90
2019-04-07T00:35:23.279Z,99.90
2019-04-07T00:37:41.992Z,99.90
2019-04-07T00:40:08.788Z,99.90
2019-04-07T00:42:35.345Z,99.90
2019-04-07T00:45:03.652Z,99.90
2019-04-07T00:47:30.694Z,99.90
2019-04-07T00:49:57.605Z,99.90
2019-04-07T00:52:24.881Z,99.90
2019-04-07T00:54:51.407Z,99.90
2019-04-07T00:57:18.062Z,99.90
2019-04-07T00:59:45.230Z,99.90
2019-04-07T01:02:12.268Z,99.90
2019-04-07T01:04:38.828Z,99.90
2019-04-07T01:07:05.346Z,99.90
2019-04-07T01:09:32.618Z,99.90
2019-04-07T01:11:59.544Z,99.90
2019-04-07T01:14:26.315Z,99.90
2019-04-07T01:16:52.947Z,99.90
2019-04-07T01:19:19.977Z,99.90
2019-04-07T01:21:46.885Z,99.90
2019-04-07T01:24:13.392Z,99.90
2019-04-07T01:26:40.504Z,99.90
2019-04-07T01:29:07.076Z,99.90
2019-04-07T01:31:33.347Z,99.90
2019-04-07T01:33:59.656Z,99.90
2019-04-07T01:36:26.539Z,99.90
2019-04-07T01:38:53.295Z,99.90
2019-04-07T01:41:21.736Z,99.90
2019-04-07T01:43:49.959Z,99.90
2019-04-07T01:46:18.984Z,99.90
2019-04-07T01:48:50.221Z,99.90
2019-04-07T01:51:24.681Z,99.90
2019-04-07T01:54:10.259Z,99.90
2019-04-07T01:56:50.383Z,99.90
2019-04-07T01:59:22.067Z,99.90
2019-04-07T02:02:08.314Z,99.90
2019-04-07T02:04:36.733Z,99.90
2019-04-07T02:10:16.420Z,99.90
2019-04-07T02:12:59.839Z,99.90
2019-04-07T02:15:40.587Z,99.90
2019-04-07T02:18:12.345Z,99.90
2019-04-07T02:20:54.178Z,99.90
2019-04-07T02:23:31.737Z,99.90
2019-04-07T02:26:06.087Z,99.90
2019-04-07T02:28:51.113Z,99.90
2019-04-07T02:31:25.253Z,99.90
2019-04-07T02:33:56.249Z,99.90
2019-04-07T02:36:41.860Z,99.90
2019-04-07T02:39:19.545Z,99.90
2019-04-07T02:41:51.674Z,99.90
2019-04-07T02:44:32.002Z,99.90
2019-04-07T02:47:09.855Z,99.90
2019-04-07T02:49:56.196Z,99.90
2019-04-07T02:52:31.776Z,99.90
2019-04-07T02:55:16.580Z,99.90
2019-04-07T02:57:48.664Z,99.90
2019-04-07T03:00:18.306Z,99.90
2019-04-07T03:02:49.797Z,99.90
2019-04-07T03:05:36.492Z,99.90
2019-04-07T03:08:05.739Z,99.90
2019-04-07T03:10:35.057Z,99.90
2019-04-07T03:13:06.429Z,99.90
2019-04-07T03:15:36.336Z,99.90
2019-04-07T03:18:24.142Z,99.90
2019-04-07T03:20:57.380Z,99.90
2019-04-07T03:23:31.727Z,99.90
2019-04-07T03:26:06.212Z,99.90
2019-04-07T03:28:51.490Z,99.90
2019-04-07T03:31:22.513Z,99.90
2019-04-07T03:33:51.941Z,99.90
2019-04-07T03:36:23.600Z,99.90
2019-04-07T03:38:51.019Z,99.90
2019-04-07T03:41:22.212Z,99.90
2019-04-07T03:43:50.863Z,99.90
2019-04-07T03:46:20.293Z,99.90
2019-04-07T03:49:07.398Z,99.90
2019-04-07T03:51:36.432Z,99.90
2019-04-07T03:54:08.845Z,99.90
2019-04-07T03:56:53.517Z,99.90
2019-04-07T03:59:40.517Z,99.90
2019-04-07T04:02:21.685Z,99.90
2019-04-07T04:04:55.766Z,99.90
2019-04-07T04:07:35.769Z,99.90
2019-04-07T04:10:06.666Z,99.90
2019-04-07T04:12:37.941Z,99.90
2019-04-07T04:15:16.907Z,99.90
2019-04-07T04:17:43.641Z,99.90
2019-04-07T04:20:10.673Z,99.90
2019-04-07T04:22:37.957Z,99.90
2019-04-07T04:25:05.488Z,99.90
2019-04-07T04:27:31.883Z,99.90
2019-04-07T04:29:58.458Z,99.90
2019-04-07T04:32:25.558Z,99.90
2019-04-07T04:34:51.958Z,99.90
2019-04-07T04:37:34.532Z,99.90
2019-04-07T04:39:47.512Z,99.90
2019-04-07T04:42:14.046Z,99.90
2019-04-07T04:44:40.617Z,99.90
2019-04-07T04:47:07.935Z,99.90
2019-04-07T04:49:35.278Z,99.90
2019-04-07T04:52:01.741Z,99.90
2019-04-07T04:54:28.979Z,99.90
2019-04-07T04:56:55.801Z,99.90
2019-04-07T04:59:22.084Z,99.90
2019-04-07T05:01:48.800Z,99.90
2019-04-07T05:04:15.240Z,99.90
2019-04-07T05:06:42.327Z,99.90
2019-04-07T05:09:09.134Z,99.90
2019-04-07T05:11:35.914Z,99.90
2019-04-07T05:14:03.825Z,99.90
2019-04-07T05:16:30.460Z,99.90
2019-04-07T05:18:57.349Z,99.90
2019-04-07T05:21:23.980Z,99.90
2019-04-07T05:23:50.475Z,99.90
2019-04-07T05:26:16.848Z,99.90
2019-04-07T05:28:43.889Z,99.90
2019-04-07T05:31:10.348Z,99.90
2019-04-07T05:33:36.779Z,99.90
2019-04-07T05:36:03.745Z,99.90
2019-04-07T05:38:30.314Z,99.90
2019-04-07T05:40:57.426Z,99.90
2019-04-07T05:43:23.883Z,99.90
2019-04-07T05:45:50.926Z,99.90
2019-04-07T05:48:20.120Z,99.90
2019-04-07T05:50:46.088Z,99.90
2019-04-07T05:53:14.711Z,99.90
2019-04-07T05:55:41.112Z,99.90
2019-04-07T05:58:08.513Z,99.90
2019-04-07T06:00:35.128Z,99.90
2019-04-07T06:03:06.549Z,99.90
2019-04-07T06:05:31.282Z,99.90
2019-04-07T06:08:00.873Z,99.90
2019-04-07T06:10:28.670Z,99.90
2019-04-07T06:12:55.329Z,99.90
2019-04-07T06:15:22.528Z,99.90
2019-04-07T06:17:50.103Z,99.90
2019-04-07T06:20:17.843Z,99.90
2019-04-07T06:22:46.939Z,99.90
2019-04-07T06:25:13.267Z,99.90
2019-04-07T06:27:40.416Z,99.90
2019-04-07T06:30:09.713Z,99.90
2019-04-07T06:32:37.875Z,99.90
2019-04-07T06:35:05.848Z,99.90
2019-04-07T06:37:32.955Z,99.90
2019-04-07T06:39:59.381Z,99.90
2019-04-07T06:42:26.676Z,99.90
2019-04-07T06:44:53.222Z,99.90
2019-04-07T06:47:24.945Z,99.90
2019-04-07T06:50:05.779Z,99.90
2019-04-07T06:52:39.794Z,99.90
2019-04-07T06:55:26.637Z,99.90
2019-04-07T06:57:57.129Z,99.90
2019-04-07T07:00:31.224Z,99.90
2019-04-07T07:03:06.120Z,99.90
2019-04-07T07:05:41.115Z,99.90
2019-04-07T07:08:21.897Z,99.90
2019-04-07T07:11:08.287Z,99.90
2019-04-07T07:13:48.890Z,99.90
2019-04-07T07:16:23.948Z,99.90
2019-04-07T07:19:02.165Z,99.90
2019-04-07T07:21:39.910Z,99.90
2019-04-07T07:24:07.097Z,99.90
2019-04-07T07:26:35.446Z,99.90
2019-04-07T07:29:03.075Z,99.90
2019-04-07T07:31:29.816Z,99.90
2019-04-07T07:33:56.297Z,99.90
2019-04-07T07:36:23.954Z,99.90
2019-04-07T07:38:59.060Z,99.90
2019-04-07T07:41:20.636Z,99.90
2019-04-07T07:43:47.238Z,99.90
2019-04-07T07:46:17.841Z,99.90
2019-04-07T07:48:42.177Z,99.90
2019-04-07T07:51:12.931Z,99.90
2019-04-07T07:53:37.315Z,99.90
2019-04-07T07:56:08.365Z,99.90
2019-04-07T07:58:33.608Z,99.90
2019-04-07T08:01:01.416Z,99.90
2019-04-07T08:03:28.131Z,99.90
2019-04-07T08:05:56.514Z,99.90
2019-04-07T08:08:23.418Z,99.90
2019-04-07T08:10:50.720Z,99.90
2019-04-07T08:13:17.900Z,99.90
2019-04-07T08:15:44.608Z,99.90
2019-04-07T08:18:11.444Z,99.90
2019-04-07T08:20:38.457Z,99.90
2019-04-07T08:23:05.374Z,99.90
2019-04-07T08:25:31.954Z,99.90
2019-04-07T08:28:02.159Z,99.90
2019-04-07T08:30:27.190Z,99.90
2019-04-07T08:32:57.639Z,99.90
2019-04-07T08:35:23.248Z,99.90
2019-04-07T08:37:50.043Z,99.90
2019-04-07T08:40:16.883Z,99.90
2019-04-07T08:42:44.419Z,99.90
2019-04-07T08:45:12.084Z,99.90
2019-04-07T08:47:39.182Z,99.90
2019-04-07T08:50:08.453Z,99.90
2019-04-07T08:52:38.470Z,99.90
2019-04-07T08:55:05.010Z,99.90
2019-04-07T08:57:32.421Z,99.90
2019-04-07T08:59:59.171Z,99.90
2019-04-07T09:02:28.436Z,99.90
2019-04-07T09:04:54.641Z,99.90
2019-04-07T09:07:23.634Z,99.90
2019-04-07T09:09:50.015Z,99.90
2019-04-07T09:12:17.455Z,99.90
2019-04-07T09:14:44.122Z,99.90
2019-04-07T09:17:12.710Z,99.90
2019-04-07T09:19:47.082Z,99.90
2019-04-07T09:22:15.590Z,99.90
2019-04-07T09:25:06.355Z,99.90
2019-04-07T09:27:32.780Z,99.90
2019-04-07T09:30:09.026Z,99.90
2019-04-07T09:32:40.560Z,99.90
2019-04-07T09:35:15.539Z,99.90
2019-04-07T09:37:53.307Z,99.90
2019-04-07T09:40:29.329Z,99.90
2019-04-07T09:43:01.287Z,99.90
2019-04-07T09:45:32.465Z,99.90
2019-04-07T09:48:06.536Z,99.90
2019-04-07T09:50:38.591Z,99.90
2019-04-07T09:53:23.632Z,99.90
2019-04-07T09:55:58.235Z,99.90
2019-04-07T09:58:45.317Z,99.90
2019-04-07T10:01:20.021Z,99.90
2019-04-07T10:03:56.363Z,99.90
2019-04-07T10:06:39.921Z,99.90
2019-04-07T10:09:17.439Z,99.90
2019-04-07T10:11:51.909Z,99.90
2019-04-07T10:14:27.144Z,99.90
2019-04-07T10:17:01.680Z,99.90
2019-04-07T10:19:36.311Z,99.90
2019-04-07T10:22:04.879Z,99.90
2019-04-07T10:24:42.167Z,99.90
2019-04-07T10:27:22.494Z,99.90
2019-04-07T10:30:05.819Z,99.90
2019-04-07T10:32:50.712Z,99.90
2019-04-07T10:35:19.132Z,99.90
2019-04-07T10:37:53.240Z,99.90
2019-04-07T10:40:22.519Z,99.90
2019-04-07T10:42:56.591Z,99.90
2019-04-07T10:46:04.093Z,99.90
2019-04-07T10:48:36.684Z,99.90
2019-04-07T10:51:08.181Z,99.90
2019-04-07T10:53:37.030Z,99.90
2019-04-07T10:56:18.739Z,99.90
2019-04-07T10:58:59.424Z,99.90
2019-04-07T11:01:27.982Z,99.90
2019-04-07T11:03:59.425Z,99.90
2019-04-07T11:06:37.127Z,99.90
2019-04-07T11:09:11.564Z,99.90
2019-04-07T11:11:40.006Z,99.90
2019-04-07T11:14:11.298Z,99.90
2019-04-07T11:16:43.164Z,99.90
2019-04-07T11:19:14.712Z,99.90
2019-04-07T11:21:55.595Z,99.90
2019-04-07T11:24:27.489Z,99.90
2019-04-07T11:27:08.141Z,99.90
2019-04-07T11:29:38.673Z,99.90
2019-04-07T11:32:10.409Z,99.90
2019-04-07T11:34:55.319Z,99.90
2019-04-07T11:37:24.485Z,99.90
2019-04-07T11:40:02.213Z,99.90
2019-04-07T11:42:42.266Z,99.90
2019-04-07T11:45:11.343Z,99.90
2019-04-07T11:47:40.563Z,99.90
2019-04-07T11:50:25.614Z,99.90
2019-04-07T11:52:57.327Z,99.90
2019-04-07T11:55:31.461Z,99.90
2019-04-07T11:58:14.335Z,99.90
2019-04-07T12:00:48.827Z,99.90
2019-04-07T12:03:18.077Z,99.90
2019-04-07T12:05:52.544Z,99.90
2019-04-07T12:08:25.147Z,99.90
2019-04-07T12:11:00.578Z,99.90
2019-04-07T12:13:33.122Z,99.90
2019-04-07T12:16:10.570Z,99.70
2019-04-07T12:18:47.188Z,99.00
2019-04-07T12:21:22.566Z,98.80
2019-04-07T12:23:58.238Z,97.70
2019-04-07T12:26:39.623Z,97.20
2019-04-07T12:29:09.129Z,98.90
2019-04-07T12:31:46.723Z,97.80
2019-04-07T12:34:32.193Z,96.20
2019-04-07T12:37:12.607Z,96.60
2019-04-07T12:39:47.270Z,94.50
2019-04-07T12:42:15.632Z,95.20
2019-04-07T12:44:46.829Z,94.60
2019-04-07T12:47:21.287Z,94.60
2019-04-07T12:50:05.157Z,93.00
2019-04-07T12:52:46.276Z,94.50
2019-04-07T12:55:26.578Z,94.80
2019-04-07T12:57:55.485Z,92.30
2019-04-07T13:00:27.625Z,91.10
2019-04-07T13:03:02.838Z,90.40
2019-04-07T13:05:37.906Z,91.30
2019-04-07T13:08:25.676Z,90.30
2019-04-07T13:11:11.798Z,89.50
2019-04-07T13:13:39.519Z,90.80
2019-04-07T13:16:26.467Z,89.70
2019-04-07T13:19:13.194Z,85.40
2019-04-07T13:21:59.511Z,83.50
2019-04-07T13:24:45.366Z,83.50
2019-04-07T13:27:22.251Z,83.40
2019-04-07T13:29:50.751Z,81.70
2019-04-07T13:32:41.600Z,82.00
2019-04-07T13:35:23.326Z,81.40
2019-04-07T13:38:09.311Z,80.50
2019-04-07T13:40:38.078Z,80.50
2019-04-07T13:43:13.350Z,82.70
2019-04-07T13:45:53.424Z,81.90
2019-04-07T13:48:21.234Z,80.90
2019-04-07T13:51:06.224Z,80.20
2019-04-07T13:53:34.600Z,80.70
2019-04-07T13:56:03.240Z,78.70
2019-04-07T13:58:41.047Z,79.10
2019-04-07T14:01:20.277Z,78.20
2019-04-07T14:03:49.316Z,77.30
2019-04-07T14:06:27.280Z,77.30
2019-04-07T14:09:02.490Z,75.90
2019-04-07T14:11:56.953Z,77.00
2019-04-07T14:14:18.991Z,76.60
2019-04-07T14:16:50.916Z,78.00
2019-04-07T14:19:23.145Z,76.70
2019-04-07T14:22:03.341Z,77.30
2019-04-07T14:24:38.300Z,75.90
2019-04-07T14:27:09.725Z,75.60
2019-04-07T14:29:51.208Z,75.20
2019-04-07T14:32:20.660Z,75.00
2019-04-07T14:34:49.919Z,74.10
2019-04-07T14:37:34.089Z,75.30
2019-04-07T14:40:05.236Z,74.90
2019-04-07T14:42:34.138Z,74.00
2019-04-07T14:45:12.139Z,73.50
2019-04-07T14:47:41.424Z,74.00
2019-04-07T14:50:13.377Z,72.90
2019-04-07T14:52:57.802Z,72.90
2019-04-07T14:55:32.542Z,71.70
2019-04-07T14:58:01.423Z,70.40
2019-04-07T15:00:30.200Z,72.00
2019-04-07T15:02:57.562Z,70.40
2019-04-07T15:05:29.841Z,68.90
2019-04-07T15:08:00.072Z,68.20
2019-04-07T15:10:28.898Z,69.30
2019-04-07T15:13:03.928Z,69.40
2019-04-07T15:15:31.253Z,68.70
2019-04-07T15:17:58.736Z,67.30
2019-04-07T15:20:25.528Z,67.10
2019-04-07T15:22:52.857Z,67.20
2019-04-07T15:25:19.553Z,66.30
2019-04-07T15:27:46.352Z,65.40
2019-04-07T15:30:15.564Z,65.30
2019-04-07T15:32:42.739Z,63.70
2019-04-07T15:35:13.213Z,64.60
2019-04-07T15:37:39.839Z,62.70
2019-04-07T15:40:07.270Z,63.90
2019-04-07T15:42:41.068Z,63.10
2019-04-07T15:45:06.492Z,62.50
2019-04-07T15:47:33.411Z,62.70
2019-04-07T15:50:00.622Z,62.80
2019-04-07T15:52:27.521Z,61.90
2019-04-07T15:54:56.124Z,61.90
2019-04-07T15:57:24.025Z,61.70
2019-04-07T15:59:50.680Z,61.50
2019-04-07T16:02:17.502Z,61.70
2019-04-07T16:04:44.190Z,61.60
2019-04-07T16:07:12.038Z,62.00
2019-04-07T16:09:49.251Z,61.70
2019-04-07T16:12:08.019Z,60.80
2019-04-07T16:14:35.183Z,61.80
2019-04-07T16:17:04.071Z,60.80
2019-04-07T16:19:39.898Z,59.90
2019-04-07T16:21:58.739Z,60.70
2019-04-07T16:24:25.760Z,61.40
2019-04-07T16:26:52.690Z,61.30
2019-04-07T16:29:20.356Z,59.60
2019-04-07T16:31:48.871Z,61.70
2019-04-07T16:34:16.501Z,63.00
2019-04-07T16:36:43.352Z,60.80
2019-04-07T16:39:10.031Z,61.00
2019-04-07T16:41:36.624Z,61.90
2019-04-07T16:44:06.963Z,63.00
2019-04-07T16:46:32.562Z,63.50
2019-04-07T16:48:59.786Z,64.50
2019-04-07T16:51:29.453Z,64.70
2019-04-07T16:53:55.155Z,64.90
2019-04-07T16:56:22.255Z,65.10
2019-04-07T16:58:50.224Z,64.60
2019-04-07T17:01:17.414Z,67.10
2019-04-07T17:03:44.286Z,67.70
2019-04-07T17:06:12.263Z,68.90
2019-04-07T17:08:39.158Z,70.40
2019-04-07T17:11:07.842Z,70.10
2019-04-07T17:13:40.787Z,70.80
2019-04-07T17:16:03.228Z,70.60
2019-04-07T17:18:41.207Z,71.20
2019-04-07T17:21:13.982Z,74.00
2019-04-07T17:23:41.067Z,72.30
2019-04-07T17:26:08.235Z,73.80
2019-04-07T17:28:35.571Z,73.90
2019-04-07T17:31:03.373Z,74.30
2019-04-07T17:33:32.605Z,73.80
2019-04-07T17:35:59.240Z,77.70
2019-04-07T17:38:45.321Z,78.70
2019-04-07T17:41:14.376Z,84.40
2019-04-07T17:43:51.388Z,79.60
2019-04-07T17:46:25.945Z,78.90
2019-04-07T17:48:58.681Z,78.80
2019-04-07T17:51:36.294Z,79.90
2019-04-07T17:54:07.903Z,80.30
2019-04-07T17:56:43.140Z,80.50
2019-04-07T17:59:16.707Z,81.30
2019-04-07T18:01:56.545Z,82.80
2019-04-07T18:04:25.540Z,84.20
2019-04-07T18:07:05.804Z,85.20
2019-04-07T18:09:33.148Z,86.30
2019-04-07T18:12:18.205Z,87.50
2019-04-07T18:15:05.774Z,89.10
2019-04-07T18:17:41.903Z,89.70
2019-04-07T18:20:13.035Z,90.50
2019-04-07T18:22:42.245Z,90.70
2019-04-07T18:25:11.001Z,91.70
2019-04-07T18:27:43.761Z,92.30
2019-04-07T18:30:16.592Z,92.90
2019-04-07T18:32:51.439Z,93.40
2019-04-07T18:35:33.112Z,94.20
2019-04-07T18:38:02.293Z,95.50
2019-04-07T18:40:31.823Z,96.30
2019-04-07T18:43:04.282Z,97.20
2019-04-07T18:45:41.454Z,97.30
2019-04-07T18:48:15.585Z,98.00
2019-04-07T18:50:44.384Z,98.60
2019-04-07T18:53:28.721Z,99.10
2019-04-07T18:56:09.857Z,99.90
2019-04-07T18:58:38.507Z,99.90
2019-04-07T19:01:08.905Z,99.90
2019-04-07T19:03:54.890Z,99.90
2019-04-07T19:06:24.769Z,99.90
2019-04-07T19:09:11.126Z,99.90
2019-04-07T19:11:42.977Z,99.90
2019-04-07T19:14:30.697Z,99.90
2019-04-07T19:16:50.923Z,99.90
2019-04-07T19:19:32.257Z,99.90
2019-04-07T19:22:07.106Z,99.90
2019-04-07T19:24:42.782Z,99.90
2019-04-07T19:27:21.155Z,99.90
2019-04-07T19:29:46.139Z,99.90
2019-04-07T19:32:23.576Z,99.90
2019-04-07T19:35:02.039Z,99.90
2019-04-07T19:37:38.367Z,99.90
2019-04-07T19:40:12.484Z,99.90
2019-04-07T19:42:49.541Z,99.90
2019-04-07T19:45:22.847Z,99.90
2019-04-07T19:47:58.187Z,99.90
2019-04-07T19:50:27.098Z,99.90
2019-04-07T19:52:56.197Z,99.90
2019-04-07T19:55:41.396Z,99.90
2019-04-07T19:58:16.035Z,99.90
2019-04-07T20:00:52.796Z,99.90
2019-04-07T20:03:39.226Z,99.90
2019-04-07T20:06:09.350Z,99.90
2019-04-07T20:08:43.705Z,99.90
2019-04-07T20:11:12.400Z,99.90
2019-04-07T20:13:41.074Z,99.90
2019-04-07T20:16:24.792Z,99.90
2019-04-07T20:19:09.519Z,99.90
2019-04-07T20:21:49.426Z,99.90
2019-04-07T20:24:23.867Z,99.90
2019-04-07T20:26:53.961Z,99.90
2019-04-07T20:29:25.835Z,99.90
2019-04-07T20:32:03.475Z,99.90
2019-04-07T20:34:42.869Z,99.90
2019-04-07T20:37:13.823Z,99.90
2019-04-07T20:40:00.155Z,99.90
2019-04-07T20:42:29.754Z,99.90
2019-04-07T20:45:04.192Z,99.90
2019-04-07T20:47:45.189Z,99.90
2019-04-07T20:50:16.485Z,99.90
2019-04-07T20:53:08.603Z,99.90
2019-04-07T20:55:30.898Z,99.90
2019-04-07T20:58:16.282Z,99.90
2019-04-07T21:00:58.337Z,99.90
2019-04-07T21:03:38.570Z,99.90
2019-04-07T21:06:28.184Z,99.90
2019-04-07T21:09:08.385Z,99.90
2019-04-07T21:11:43.904Z,99.90
2019-04-07T21:14:09.945Z,99.90
2019-04-07T21:16:47.414Z,99.90
2019-04-07T21:19:35.437Z,99.90
2019-04-07T21:22:01.364Z,99.90
2019-04-07T21:24:49.694Z,99.90
2019-04-07T21:27:33.358Z,99.90
2019-04-07T21:29:59.112Z,99.90
2019-04-07T21:32:31.164Z,99.90
2019-04-07T21:35:05.360Z,99.90
2019-04-07T21:37:36.391Z,99.90
2019-04-07T21:40:15.505Z,99.90
2019-04-07T21:42:50.303Z,99.90
2019-04-07T21:45:32.376Z,99.90
2019-04-07T21:47:58.005Z,99.90
2019-04-07T21:50:24.543Z,99.90
2019-04-07T21:52:55.372Z,99.90
2019-04-07T21:55:41.982Z,99.90
2019-04-07T21:58:10.309Z,99.90
2019-04-07T22:00:45.385Z,99.90
2019-04-07T22:03:18.051Z,99.90
2019-04-07T22:05:50.951Z,99.90
2019-04-07T22:08:20.015Z,99.90
2019-04-07T22:10:47.890Z,99.90
2019-04-07T22:13:15.497Z,99.90
2019-04-07T22:15:48.210Z,99.90
2019-04-07T22:18:11.140Z,99.90
2019-04-07T22:20:37.771Z,99.90
2019-04-07T22:23:06.274Z,99.90
2019-04-07T22:25:39.877Z,99.90
2019-04-07T22:28:06.442Z,99.90
2019-04-07T22:30:33.964Z,99.90
2019-04-07T22:33:01.939Z,99.90
2019-04-07T22:35:28.745Z,99.90
2019-04-07T22:37:55.476Z,99.90
2019-04-07T22:40:22.534Z,99.90
2019-04-07T22:42:50.024Z,99.90
2019-04-07T22:45:17.546Z,99.90
2019-04-07T22:47:44.534Z,99.90
2019-04-07T22:50:11.342Z,99.90
2019-04-07T22:52:38.265Z,99.90
2019-04-07T22:55:08.029Z,99.90
2019-04-07T22:57:33.540Z,99.90
2019-04-07T23:00:00.151Z,99.90
2019-04-07T23:02:27.622Z,99.90
2019-04-07T23:04:54.494Z,99.90
2019-04-07T23:07:21.298Z,99.90
2019-04-07T23:09:47.754Z,99.90
2019-04-07T23:12:14.737Z,99.90
2019-04-07T23:14:42.116Z,99.90
2019-04-07T23:17:08.775Z,99.90
2019-04-07T23:19:35.220Z,99.90
2019-04-07T23:22:01.491Z,99.90
2019-04-07T23:24:28.796Z,99.90
2019-04-07T23:26:55.185Z,99.90
2019-04-07T23:29:21.886Z,99.90
2019-04-07T23:31:48.327Z,99.90
2019-04-07T23:34:14.850Z,99.90
2019-04-07T23:36:41.293Z,99.90
2019-04-07T23:39:07.714Z,99.90
2019-04-07T23:41:34.102Z,99.90
2019-04-07T23:44:00.997Z,99.90
2019-04-07T23:46:28.504Z,99.90
2019-04-07T23:48:55.940Z,99.90
2019-04-07T23:51:23.257Z,99.90
2019-04-07T23:54:10.971Z,99.90
2019-04-07T23:56:42.113Z,99.90
2019-04-07T23:59:10.338Z,99.90
